createdAt,value
2019-03-23T00:01:10.488Z,22.40
2019-03-23T00:03:40.545Z,22.75
2019-03-23T00:06:10.623Z,21.05
2019-03-23T00:08:40.714Z,22.23
2019-03-23T00:11:10.744Z,23.35
2019-03-23T00:13:40.818Z,27.60
2019-03-23T00:16:10.872Z,27.17
2019-03-23T00:18:41.939Z,19.92
2019-03-23T00:21:12.000Z,20.65
2019-03-23T00:23:42.066Z,22.30
2019-03-23T00:26:13.310Z,19.67
2019-03-23T00:28:43.503Z,22.27
2019-03-23T00:31:13.563Z,19.23
2019-03-23T00:33:43.658Z,23.00
2019-03-23T00:36:13.708Z,20.60
2019-03-23T00:38:43.774Z,18.57
2019-03-23T00:41:13.847Z,20.08
2019-03-23T00:43:43.931Z,21.25
2019-03-23T00:46:13.994Z,20.93
2019-03-23T00:48:44.050Z,20.80
2019-03-23T00:51:14.142Z,19.45
2019-03-23T00:53:44.196Z,21.75
2019-03-23T00:56:16.516Z,22.32
2019-03-23T00:58:46.052Z,16.10
2019-03-23T01:01:16.666Z,17.50
2019-03-23T01:03:46.725Z,18.45
2019-03-23T01:06:16.826Z,20.40
2019-03-23T01:08:46.871Z,16.87
2019-03-23T01:11:16.949Z,17.60
2019-03-23T01:13:47.009Z,15.28
2019-03-23T01:16:17.167Z,18.00
2019-03-23T01:18:47.213Z,16.53
2019-03-23T01:21:17.356Z,22.10
2019-03-23T01:23:47.410Z,17.37
2019-03-23T01:26:17.490Z,17.27
2019-03-23T01:28:47.560Z,18.62
2019-03-23T01:31:17.640Z,15.20
2019-03-23T01:33:47.735Z,18.55
2019-03-23T01:36:17.841Z,22.65
2019-03-23T01:38:47.871Z,15.95
2019-03-23T01:41:17.952Z,16.70
2019-03-23T01:43:48.007Z,20.27
2019-03-23T01:46:19.064Z,13.90
2019-03-23T01:48:49.119Z,19.85
2019-03-23T01:51:19.207Z,15.48
2019-03-23T01:53:49.262Z,15.30
2019-03-23T01:56:19.336Z,17.40
2019-03-23T01:58:49.401Z,17.17
2019-03-23T02:01:19.474Z,11.78
2019-03-23T02:03:49.530Z,12.87
2019-03-23T02:06:19.660Z,14.58
2019-03-23T02:08:49.721Z,13.93
2019-03-23T02:11:19.768Z,17.07
2019-03-23T02:13:49.856Z,12.30
2019-03-23T02:16:19.905Z,17.17
2019-03-23T02:18:49.996Z,14.85
2019-03-23T02:21:20.047Z,19.35
2019-03-23T02:23:50.117Z,17.32
2019-03-23T02:26:20.161Z,13.25
2019-03-23T02:28:50.233Z,14.85
2019-03-23T02:31:20.296Z,19.90
2019-03-23T02:33:50.353Z,20.48
2019-03-23T02:36:20.410Z,24.23
2019-03-23T02:38:50.459Z,18.17
2019-03-23T02:41:20.547Z,23.10
2019-03-23T02:43:50.616Z,25.85
2019-03-23T02:46:20.777Z,33.73
2019-03-23T02:48:50.837Z,29.23
2019-03-23T02:51:21.891Z,40.17
2019-03-23T02:53:51.936Z,43.83
2019-03-23T02:56:22.028Z,54.40
2019-03-23T02:58:53.045Z,55.00
2019-03-23T03:01:23.171Z,68.95
2019-03-23T03:03:53.240Z,73.43
2019-03-23T03:06:23.313Z,82.10
2019-03-23T03:08:54.340Z,72.92
2019-03-23T03:11:24.389Z,88.50
2019-03-23T03:13:54.478Z,96.00
2019-03-23T03:16:24.521Z,98.12
2019-03-23T03:18:54.629Z,98.60
2019-03-23T03:21:24.684Z,109.67
2019-03-23T03:23:54.777Z,121.42
2019-03-23T03:26:24.839Z,137.22
2019-03-23T03:28:54.920Z,137.55
2019-03-23T03:31:24.978Z,147.75
2019-03-23T03:33:55.065Z,156.60
2019-03-23T03:36:25.105Z,186.50
2019-03-23T03:38:55.184Z,193.05
2019-03-23T03:41:25.235Z,193.70
2019-03-23T03:43:55.378Z,205.55
2019-03-23T03:46:25.426Z,224.00
2019-03-23T03:48:55.496Z,216.23
2019-03-23T03:51:25.570Z,223.78
2019-03-23T03:53:55.632Z,231.95
2019-03-23T03:56:25.712Z,230.47
2019-03-23T03:58:55.767Z,234.10
2019-03-23T04:01:25.857Z,247.35
2019-03-23T04:03:55.911Z,235.35
2019-03-23T04:06:26.010Z,217.70
2019-03-23T04:08:56.065Z,209.15
2019-03-23T04:11:26.181Z,209.87
2019-03-23T04:13:56.251Z,205.18
2019-03-23T04:16:26.353Z,206.93
2019-03-23T04:18:56.418Z,222.58
2019-03-23T04:21:26.793Z,222.52
2019-03-23T04:23:56.908Z,213.70
2019-03-23T04:26:27.002Z,224.15
2019-03-23T04:28:57.150Z,227.83
2019-03-23T04:31:27.206Z,230.87
2019-03-23T04:33:57.297Z,228.17
2019-03-23T04:36:27.381Z,224.20
2019-03-23T04:38:57.514Z,220.73
2019-03-23T04:41:27.582Z,213.18
2019-03-23T04:43:57.697Z,208.87
2019-03-23T04:46:27.755Z,219.05
2019-03-23T04:48:57.873Z,222.53
2019-03-23T04:51:27.985Z,213.95
2019-03-23T04:53:58.097Z,225.57
2019-03-23T04:56:28.161Z,179.20
2019-03-23T04:58:58.221Z,190.20
2019-03-23T05:01:28.272Z,184.95
2019-03-23T05:03:58.356Z,186.73
2019-03-23T05:06:28.415Z,185.50
2019-03-23T05:08:58.497Z,185.70
2019-03-23T05:11:28.555Z,192.25
2019-03-23T05:13:58.629Z,196.80
2019-03-23T05:16:29.495Z,196.45
2019-03-23T05:18:59.585Z,198.55
2019-03-23T05:21:29.645Z,189.85
2019-03-23T05:23:59.724Z,189.65
2019-03-23T05:26:29.789Z,178.02
2019-03-23T05:28:59.867Z,179.45
2019-03-23T05:31:29.919Z,178.75
2019-03-23T05:34:00.006Z,165.50
2019-03-23T05:36:30.060Z,157.75
2019-03-23T05:39:00.148Z,159.22
2019-03-23T05:41:30.985Z,160.48
2019-03-23T05:44:01.055Z,165.20
2019-03-23T05:46:32.075Z,156.93
2019-03-23T05:49:02.161Z,155.78
2019-03-23T05:51:32.208Z,177.20
2019-03-23T05:54:02.360Z,158.10
2019-03-23T05:56:32.418Z,172.22
2019-03-23T05:59:02.496Z,166.62
2019-03-23T06:01:32.541Z,170.32
2019-03-23T06:04:02.621Z,187.03
2019-03-23T06:06:32.669Z,181.20
2019-03-23T06:09:02.843Z,180.42
2019-03-23T06:11:32.894Z,188.10
2019-03-23T06:14:02.982Z,172.93
2019-03-23T06:16:33.042Z,184.13
2019-03-23T06:19:03.117Z,182.00
2019-03-23T06:21:33.174Z,169.62
2019-03-23T06:24:03.252Z,175.42
2019-03-23T06:26:33.305Z,187.40
2019-03-23T06:29:03.376Z,184.25
2019-03-23T06:31:33.430Z,189.57
2019-03-23T06:34:03.595Z,199.42
2019-03-23T06:36:33.641Z,195.60
2019-03-23T06:39:05.911Z,186.22
2019-03-23T06:41:36.018Z,200.55
2019-03-23T06:44:06.086Z,188.83
2019-03-23T06:46:36.163Z,202.95
2019-03-23T06:49:06.227Z,202.50
2019-03-23T06:51:37.279Z,192.00
2019-03-23T06:54:07.355Z,204.60
2019-03-23T06:56:37.436Z,201.95
2019-03-23T06:59:07.495Z,190.95
2019-03-23T07:01:37.564Z,183.90
2019-03-23T07:04:07.624Z,193.30
2019-03-23T07:06:37.709Z,198.35
2019-03-23T07:09:15.801Z,191.37
2019-03-23T07:11:39.877Z,183.15
2019-03-23T07:14:09.938Z,200.85
2019-03-23T07:16:40.009Z,205.90
2019-03-23T07:19:10.067Z,195.70
2019-03-23T07:21:40.135Z,199.77
2019-03-23T07:24:10.239Z,198.78
2019-03-23T07:26:40.347Z,188.00
2019-03-23T07:29:10.446Z,183.45
2019-03-23T07:31:40.560Z,180.70
2019-03-23T07:34:10.690Z,184.03
2019-03-23T07:36:40.775Z,203.47
2019-03-23T07:39:10.942Z,198.57
2019-03-23T07:41:41.026Z,189.70
2019-03-23T07:44:11.114Z,188.45
2019-03-23T07:46:41.256Z,196.85
2019-03-23T07:49:11.356Z,190.94
2019-03-23T07:51:41.419Z,186.60
2019-03-23T07:54:11.503Z,191.27
2019-03-23T07:56:41.667Z,187.35
2019-03-23T07:59:11.782Z,191.00
2019-03-23T08:01:41.859Z,186.60
2019-03-23T08:04:11.950Z,181.83
2019-03-23T08:06:42.015Z,187.43
2019-03-23T08:09:20.364Z,181.13
2019-03-23T08:11:44.817Z,189.57
2019-03-23T08:14:14.928Z,193.30
2019-03-23T08:16:45.002Z,214.48
2019-03-23T08:19:16.137Z,220.00
2019-03-23T08:21:46.210Z,224.03
2019-03-23T08:24:16.294Z,234.97
2019-03-23T08:26:46.372Z,235.78
2019-03-23T08:29:16.470Z,226.77
2019-03-23T08:31:46.546Z,229.07
2019-03-23T08:34:16.759Z,220.60
2019-03-23T08:36:46.849Z,219.50
2019-03-23T08:39:16.910Z,223.13
2019-03-23T08:41:46.985Z,218.37
2019-03-23T08:44:17.074Z,224.60
2019-03-23T08:46:47.124Z,204.77
2019-03-23T08:49:17.202Z,199.90
2019-03-23T08:51:47.274Z,188.43
2019-03-23T08:54:17.353Z,189.47
2019-03-23T08:56:47.462Z,179.23
2019-03-23T08:59:17.700Z,179.27
2019-03-23T09:01:47.758Z,170.72
2019-03-23T09:04:17.955Z,170.87
2019-03-23T09:06:48.004Z,164.80
2019-03-23T09:09:18.089Z,163.03
2019-03-23T09:11:48.235Z,147.07
2019-03-23T09:14:19.271Z,161.13
2019-03-23T09:16:49.417Z,166.15
2019-03-23T09:19:19.494Z,166.43
2019-03-23T09:21:49.625Z,150.53
2019-03-23T09:24:19.720Z,147.05
2019-03-23T09:26:49.935Z,148.27
2019-03-23T09:29:20.056Z,142.07
2019-03-23T09:31:50.184Z,146.83
2019-03-23T09:34:20.243Z,134.22
2019-03-23T09:36:50.329Z,140.85
2019-03-23T09:39:20.455Z,159.18
2019-03-23T09:41:50.558Z,145.97
2019-03-23T09:44:20.614Z,159.77
2019-03-23T09:46:50.757Z,149.20
2019-03-23T09:49:22.080Z,159.18
2019-03-23T09:51:52.177Z,159.00
2019-03-23T09:54:22.272Z,160.88
2019-03-23T09:56:52.349Z,168.45
2019-03-23T09:59:22.440Z,162.72
2019-03-23T10:01:52.624Z,162.75
2019-03-23T10:04:22.725Z,167.17
2019-03-23T10:06:52.802Z,158.53
2019-03-23T10:09:22.926Z,159.10
2019-03-23T10:11:53.023Z,156.05
2019-03-23T10:14:23.152Z,144.70
2019-03-23T10:16:53.306Z,148.13
2019-03-23T10:19:23.381Z,137.60
2019-03-23T10:21:53.466Z,159.00
2019-03-23T10:24:23.607Z,137.55
2019-03-23T10:26:53.762Z,139.62
2019-03-23T10:29:23.817Z,135.70
2019-03-23T10:31:55.694Z,129.90
2019-03-23T10:34:25.672Z,135.10
2019-03-23T10:36:56.788Z,133.50
2019-03-23T10:39:26.884Z,135.82
2019-03-23T10:41:56.965Z,131.87
2019-03-23T10:44:27.035Z,134.52
2019-03-23T10:46:57.100Z,127.40
2019-03-23T10:49:27.164Z,131.32
2019-03-23T10:51:57.252Z,130.12
2019-03-23T10:54:27.319Z,131.50
2019-03-23T10:56:57.447Z,130.70
2019-03-23T10:59:28.096Z,140.88
2019-03-23T11:01:58.163Z,130.55
2019-03-23T11:04:28.264Z,130.70
2019-03-23T11:06:58.339Z,129.50
2019-03-23T11:09:29.391Z,127.03
2019-03-23T11:11:59.465Z,128.87
2019-03-23T11:14:29.539Z,122.05
2019-03-23T11:16:59.633Z,122.28
2019-03-23T11:19:29.718Z,116.28
2019-03-23T11:21:59.784Z,120.57
2019-03-23T11:24:29.844Z,116.67
2019-03-23T11:27:00.053Z,122.92
2019-03-23T11:29:30.109Z,119.83
2019-03-23T11:32:00.212Z,113.37
2019-03-23T11:34:30.303Z,113.05
2019-03-23T11:37:00.982Z,112.28
2019-03-23T11:39:31.066Z,111.87
2019-03-23T11:42:01.232Z,122.80
2019-03-23T11:44:31.316Z,127.03
2019-03-23T11:47:01.391Z,113.28
2019-03-23T11:49:31.473Z,115.95
2019-03-23T11:52:01.617Z,129.53
2019-03-23T11:54:31.680Z,119.72
2019-03-23T11:57:01.875Z,120.90
2019-03-23T11:59:31.989Z,120.45
2019-03-23T12:02:02.062Z,113.17
2019-03-23T12:04:32.224Z,112.47
2019-03-23T12:07:02.301Z,107.53
2019-03-23T12:09:32.384Z,115.80
2019-03-23T12:12:02.927Z,114.35
2019-03-23T12:14:33.012Z,115.67
2019-03-23T12:17:03.086Z,114.25
2019-03-23T12:19:33.186Z,115.47
2019-03-23T12:22:03.251Z,109.93
2019-03-23T12:24:33.328Z,119.05
2019-03-23T12:27:03.431Z,114.03
2019-03-23T12:29:33.495Z,113.35
2019-03-23T12:32:03.597Z,110.00
2019-03-23T12:34:33.678Z,103.67
2019-03-23T12:37:03.769Z,104.10
2019-03-23T12:39:33.932Z,102.30
2019-03-23T12:42:04.195Z,106.97
2019-03-23T12:44:34.267Z,116.20
2019-03-23T12:47:04.433Z,114.20
2019-03-23T12:49:34.565Z,119.10
2019-03-23T12:52:04.658Z,113.87
2019-03-23T12:54:34.710Z,110.15
2019-03-23T12:57:04.828Z,106.40
2019-03-23T12:59:34.932Z,100.20
2019-03-23T13:02:04.994Z,102.30
2019-03-23T13:04:35.085Z,100.13
2019-03-23T13:07:05.150Z,96.45
2019-03-23T13:09:35.198Z,91.33
2019-03-23T13:12:05.295Z,103.23
2019-03-23T13:14:35.403Z,100.65
2019-03-23T13:17:05.442Z,104.33
2019-03-23T13:19:35.534Z,113.57
2019-03-23T13:22:05.706Z,97.95
2019-03-23T13:24:35.771Z,93.82
2019-03-23T13:27:05.916Z,101.92
2019-03-23T13:29:35.967Z,99.30
2019-03-23T13:32:06.028Z,96.42
2019-03-23T13:34:36.117Z,92.53
2019-03-23T13:37:06.184Z,89.77
2019-03-23T13:39:36.258Z,98.47
2019-03-23T13:42:06.326Z,103.70
2019-03-23T13:44:36.411Z,95.87
2019-03-23T13:47:06.513Z,89.77
2019-03-23T13:49:36.585Z,96.35
2019-03-23T13:52:06.665Z,85.45
2019-03-23T13:54:36.743Z,86.17
2019-03-23T13:57:07.389Z,81.80
2019-03-23T13:59:37.451Z,88.22
2019-03-23T14:02:07.522Z,92.10
2019-03-23T14:04:37.583Z,91.07
2019-03-23T14:07:07.692Z,95.80
2019-03-23T14:09:37.782Z,87.22
2019-03-23T14:12:07.918Z,84.33
2019-03-23T14:14:37.987Z,84.90
2019-03-23T14:17:08.051Z,82.15
2019-03-23T14:19:38.228Z,84.50
2019-03-23T14:22:08.301Z,83.82
2019-03-23T14:24:38.391Z,81.40
2019-03-23T14:27:08.517Z,86.10
2019-03-23T14:29:38.619Z,80.95
2019-03-23T14:32:08.681Z,83.17
2019-03-23T14:34:38.743Z,93.35
2019-03-23T14:37:08.806Z,82.57
2019-03-23T14:39:38.868Z,85.00
2019-03-23T14:42:09.039Z,83.30
2019-03-23T14:44:39.103Z,90.35
2019-03-23T14:47:09.170Z,82.87
2019-03-23T14:49:39.234Z,89.30
2019-03-23T14:52:09.289Z,90.03
2019-03-23T14:54:40.386Z,85.60
2019-03-23T14:57:10.448Z,84.45
2019-03-23T14:59:40.533Z,87.72
2019-03-23T15:02:10.586Z,82.55
2019-03-23T15:04:40.685Z,85.95
2019-03-23T15:07:10.748Z,97.20
2019-03-23T15:09:40.833Z,101.18
2019-03-23T15:12:14.872Z,104.45
2019-03-23T15:14:42.757Z,92.82
2019-03-23T15:17:12.810Z,91.30
2019-03-23T15:19:42.933Z,93.57
2019-03-23T15:22:12.987Z,88.40
2019-03-23T15:24:43.101Z,84.30
2019-03-23T15:27:13.179Z,86.60
2019-03-23T15:29:44.342Z,96.50
2019-03-23T15:32:14.402Z,91.60
2019-03-23T15:34:44.454Z,98.60
2019-03-23T15:37:14.565Z,107.00
2019-03-23T15:39:44.654Z,105.63
2019-03-23T15:42:24.292Z,92.47
2019-03-23T15:44:46.580Z,99.37
2019-03-23T15:47:16.671Z,94.32
2019-03-23T15:49:46.757Z,96.22
2019-03-23T15:52:17.645Z,92.08
2019-03-23T15:54:48.675Z,104.85
2019-03-23T15:57:18.794Z,119.82
2019-03-23T15:59:48.923Z,110.40
2019-03-23T16:02:19.042Z,107.90
2019-03-23T16:04:49.108Z,117.43
2019-03-23T16:07:29.086Z,129.40
2019-03-23T16:09:51.015Z,136.07
2019-03-23T16:12:21.065Z,117.75
2019-03-23T16:14:51.169Z,112.63
2019-03-23T16:17:21.255Z,117.07
2019-03-23T16:19:51.335Z,124.45
2019-03-23T16:22:21.446Z,109.17
2019-03-23T16:24:51.524Z,113.77
2019-03-23T16:27:21.622Z,114.88
2019-03-23T16:29:51.700Z,122.00
2019-03-23T16:32:21.789Z,133.95
2019-03-23T16:34:51.855Z,142.07
2019-03-23T16:37:21.936Z,131.70
2019-03-23T16:39:52.005Z,120.47
2019-03-23T16:42:22.078Z,119.63
2019-03-23T16:44:52.184Z,124.07
2019-03-23T16:47:22.285Z,131.65
2019-03-23T16:49:52.375Z,128.43
2019-03-23T16:52:22.432Z,133.60
2019-03-23T16:54:52.565Z,125.20
2019-03-23T16:57:22.633Z,131.72
2019-03-23T16:59:52.735Z,134.60
2019-03-23T17:02:22.826Z,132.15
2019-03-23T17:04:53.390Z,128.82
2019-03-23T17:07:23.468Z,132.03
2019-03-23T17:10:05.766Z,132.10
2019-03-23T17:12:35.910Z,113.60
2019-03-23T17:15:06.795Z,122.98
2019-03-23T17:17:36.907Z,115.70
2019-03-23T17:20:07.468Z,119.83
2019-03-23T17:22:38.310Z,121.42
2019-03-23T17:25:08.535Z,119.82
2019-03-23T17:27:38.734Z,118.13
2019-03-23T17:30:11.048Z,108.63
2019-03-23T17:32:41.114Z,109.57
2019-03-23T17:35:11.238Z,101.40
2019-03-23T17:37:41.314Z,99.90
2019-03-23T17:40:11.482Z,88.87
2019-03-23T17:42:41.614Z,84.92
2019-03-23T17:45:11.857Z,86.40
2019-03-23T17:47:41.913Z,86.80
2019-03-23T17:50:12.084Z,88.40
2019-03-23T17:52:42.268Z,83.23
2019-03-23T17:55:12.401Z,92.80
2019-03-23T17:57:42.547Z,84.27
2019-03-23T18:00:12.825Z,77.17
2019-03-23T18:02:43.003Z,80.97
2019-03-23T18:05:13.076Z,77.65
2019-03-23T18:07:43.243Z,78.10
2019-03-23T18:10:13.556Z,78.80
2019-03-23T18:12:43.657Z,70.67
2019-03-23T18:15:13.817Z,63.28
2019-03-23T18:17:43.880Z,58.90
2019-03-23T18:20:14.068Z,57.80
2019-03-23T18:22:44.140Z,50.17
2019-03-23T18:25:15.379Z,48.27
2019-03-23T18:27:45.593Z,46.95
2019-03-23T18:30:34.944Z,48.95
2019-03-23T18:33:05.513Z,39.55
2019-03-23T18:35:35.755Z,47.33
2019-03-23T18:38:06.312Z,47.07
2019-03-23T18:40:36.762Z,43.02
2019-03-23T18:43:07.036Z,38.40
2019-03-23T18:45:38.127Z,45.40
2019-03-23T18:48:08.311Z,44.50
2019-03-23T18:50:38.415Z,46.33
2019-03-23T18:53:08.591Z,38.45
2019-03-23T18:55:39.033Z,45.50
2019-03-23T18:58:09.210Z,42.43
2019-03-23T19:00:43.624Z,45.88
2019-03-23T19:03:13.720Z,43.35
2019-03-23T19:05:43.833Z,40.37
2019-03-23T19:08:14.885Z,42.23
2019-03-23T19:10:44.979Z,43.85
2019-03-23T19:13:15.098Z,47.63
2019-03-23T19:15:45.329Z,44.95
2019-03-23T19:18:15.411Z,45.48
2019-03-23T19:20:46.482Z,42.98
2019-03-23T19:23:16.614Z,48.05
2019-03-23T19:25:46.709Z,39.57
2019-03-23T19:28:16.898Z,40.73
2019-03-23T19:30:46.992Z,34.00
2019-03-23T19:33:17.104Z,40.92
2019-03-23T19:35:47.190Z,38.87
2019-03-23T19:38:18.269Z,41.40
2019-03-23T19:40:48.488Z,34.63
2019-03-23T19:43:18.561Z,44.77
2019-03-23T19:45:48.749Z,43.10
2019-03-23T19:48:18.830Z,34.75
2019-03-23T19:50:49.319Z,44.50
2019-03-23T19:53:19.405Z,44.17
2019-03-23T19:55:49.627Z,39.27
2019-03-23T19:58:19.764Z,42.50
2019-03-23T20:00:49.919Z,52.65
2019-03-23T20:03:20.028Z,43.03
2019-03-23T20:05:50.176Z,39.85
2019-03-23T20:08:21.245Z,38.30
2019-03-23T20:10:51.428Z,41.60
2019-03-23T20:13:21.794Z,40.25
2019-03-23T20:15:51.907Z,36.00
2019-03-23T20:18:21.973Z,37.07
2019-03-23T20:20:52.135Z,40.27
2019-03-23T20:23:22.245Z,38.90
2019-03-23T20:25:52.452Z,38.77
2019-03-23T20:28:22.557Z,41.15
2019-03-23T20:30:52.647Z,36.53
2019-03-23T20:33:22.767Z,34.98
2019-03-23T20:35:52.855Z,46.63
2019-03-23T20:38:22.956Z,33.63
2019-03-23T20:40:53.122Z,38.57
2019-03-23T20:43:23.210Z,34.83
2019-03-23T20:45:53.356Z,39.80
2019-03-23T20:48:23.444Z,32.60
2019-03-23T20:50:53.697Z,32.73
2019-03-23T20:53:23.751Z,46.23
2019-03-23T20:55:53.910Z,34.30
2019-03-23T20:58:24.048Z,34.60
2019-03-23T21:00:54.149Z,29.73
2019-03-23T21:06:07.903Z,35.00
2019-03-23T21:08:38.011Z,37.70
2019-03-23T21:11:08.290Z,31.30
2019-03-23T21:13:38.478Z,42.67
2019-03-23T21:16:08.562Z,40.30
2019-03-23T21:18:38.657Z,43.17
2019-03-23T21:21:08.728Z,38.25
2019-03-23T21:23:38.796Z,33.57
2019-03-23T21:26:08.848Z,36.37
2019-03-23T21:28:39.000Z,28.17
2019-03-23T21:31:09.127Z,27.60
2019-03-23T21:33:39.256Z,37.17
2019-03-23T21:36:09.398Z,29.50
2019-03-23T21:38:39.561Z,28.05
2019-03-23T21:41:09.764Z,32.45
2019-03-23T21:43:40.069Z,28.38
2019-03-23T21:46:10.246Z,27.73
2019-03-23T21:48:41.410Z,32.37
2019-03-23T21:51:11.516Z,29.55
2019-03-23T21:53:41.872Z,29.37
2019-03-23T21:56:11.980Z,32.15
2019-03-23T21:58:43.448Z,34.30
2019-03-23T22:01:13.517Z,36.63
2019-03-23T22:03:43.586Z,34.63
2019-03-23T22:06:13.654Z,37.48
2019-03-23T22:08:43.709Z,38.20
2019-03-23T22:11:13.753Z,34.80
2019-03-23T22:13:43.810Z,31.82
2019-03-23T22:16:13.849Z,32.75
2019-03-23T22:18:43.931Z,30.08
2019-03-23T22:21:13.979Z,24.25
2019-03-23T22:23:44.064Z,31.27
2019-03-23T22:26:14.181Z,32.55
2019-03-23T22:28:44.247Z,34.10
2019-03-23T22:31:14.287Z,35.33
2019-03-23T22:33:44.363Z,29.90
2019-03-23T22:36:14.407Z,24.47
2019-03-23T22:38:44.574Z,27.50
2019-03-23T22:41:14.615Z,30.40
2019-03-23T22:43:44.686Z,28.90
2019-03-23T22:46:14.744Z,27.95
2019-03-23T22:48:44.803Z,25.83
2019-03-23T22:51:14.864Z,29.05
2019-03-23T22:53:44.963Z,27.42
2019-03-23T22:56:15.014Z,28.27
2019-03-23T22:58:45.211Z,28.63
2019-03-23T23:01:15.432Z,34.40
2019-03-23T23:03:45.495Z,30.90
2019-03-23T23:06:15.558Z,30.92
2019-03-23T23:08:45.612Z,30.37
2019-03-23T23:11:15.697Z,30.65
2019-03-23T23:13:45.762Z,27.45
2019-03-23T23:16:16.808Z,28.87
2019-03-23T23:18:47.834Z,19.92
2019-03-23T23:21:17.915Z,36.10
2019-03-23T23:23:47.969Z,27.52
2019-03-23T23:26:18.056Z,32.58
2019-03-23T23:28:48.118Z,34.10
2019-03-23T23:31:18.211Z,32.85
2019-03-23T23:33:48.270Z,29.70
2019-03-23T23:36:18.345Z,37.58
2019-03-23T23:38:48.400Z,28.80
2019-03-23T23:41:18.479Z,27.73
2019-03-23T23:43:48.531Z,36.10
2019-03-23T23:46:18.617Z,34.15
2019-03-23T23:48:51.393Z,30.57
2019-03-23T23:51:20.435Z,32.03
2019-03-23T23:53:50.495Z,32.45
2019-03-23T23:56:20.662Z,25.57
2019-03-23T23:58:50.744Z,25.48
